sensor_id;sensor_type;location;lat;lon;timestamp;pressure;altitude;pressure_sealevel;temperature;humidity
35888;BME280;21990;42.540;23.496;2023-03-01T00:01:51;93969.22;;;5.52;100.00
35888;BME280;21990;42.540;23.496;2023-03-01T00:04:17;93964.75;;;5.40;100.00
35888;BME280;21990;42.540;23.496;2023-03-01T00:06:43;93971.03;;;5.35;100.00
35888;BME280;21990;42.540;23.496;2023-03-01T00:09:12;93967.97;;;5.33;100.00
35888;BME280;21990;42.540;23.496;2023-03-01T00:11:37;93969.13;;;5.26;100.00
35888;BME280;21990;42.540;23.496;2023-03-01T00:14:04;93969.13;;;5.26;100.00
35888;BME280;21990;42.540;23.496;2023-03-01T00:16:35;93967.31;;;5.23;100.00
35888;BME280;21990;42.540;23.496;2023-03-01T00:19:02;93973.41;;;5.21;100.00
35888;BME280;21990;42.540;23.496;2023-03-01T00:21:28;93966.28;;;5.20;100.00
35888;BME280;21990;42.540;23.496;2023-03-01T00:23:54;93964.53;;;5.23;100.00
35888;BME280;21990;42.540;23.496;2023-03-01T00:26:21;93965.94;;;5.13;100.00
35888;BME280;21990;42.540;23.496;2023-03-01T00:28:47;93949.31;;;5.04;100.00
35888;BME280;21990;42.540;23.496;2023-03-01T00:31:16;93944.50;;;5.04;100.00
35888;BME280;21990;42.540;23.496;2023-03-01T00:33:42;93941.25;;;4.91;100.00
35888;BME280;21990;42.540;23.496;2023-03-01T00:36:09;93946.44;;;4.98;100.00
35888;BME280;21990;42.540;23.496;2023-03-01T00:38:39;93951.06;;;5.01;100.00
35888;BME280;21990;42.540;23.496;2023-03-01T00:41:09;93937.56;;;5.00;100.00
35888;BME280;21990;42.540;23.496;2023-03-01T00:43:35;93938.63;;;5.02;100.00
35888;BME280;21990;42.540;23.496;2023-03-01T00:46:08;93937.38;;;5.03;100.00
35888;BME280;21990;42.540;23.496;2023-03-01T00:48:35;93924.72;;;5.08;100.00
35888;BME280;21990;42.540;23.496;2023-03-01T00:51:12;93931.50;;;5.01;100.00
35888;BME280;21990;42.540;23.496;2023-03-01T00:53:38;93926.88;;;4.98;100.00
35888;BME280;21990;42.540;23.496;2023-03-01T00:56:08;93922.72;;;5.08;100.00
35888;BME280;21990;42.540;23.496;2023-03-01T00:58:34;93925.78;;;5.10;100.00
35888;BME280;21990;42.540;23.496;2023-03-01T01:01:00;93925.56;;;5.14;100.00
35888;BME280;21990;42.540;23.496;2023-03-01T01:03:25;93920.75;;;5.14;100.00
35888;BME280;21990;42.540;23.496;2023-03-01T01:05:52;93916.84;;;5.06;100.00
35888;BME280;21990;42.540;23.496;2023-03-01T01:08:19;93929.31;;;4.91;100.00
35888;BME280;21990;42.540;23.496;2023-03-01T01:10:45;93932.28;;;5.02;100.00
35888;BME280;21990;42.540;23.496;2023-03-01T01:13:11;93928.06;;;4.92;100.00
35888;BME280;21990;42.540;23.496;2023-03-01T01:15:36;93931.91;;;4.94;100.00
35888;BME280;21990;42.540;23.496;2023-03-01T01:18:03;93932.53;;;4.84;100.00
35888;BME280;21990;42.540;23.496;2023-03-01T01:20:29;93933.50;;;4.81;100.00
35888;BME280;21990;42.540;23.496;2023-03-01T01:22:54;93934.50;;;4.77;100.00
35888;BME280;21990;42.540;23.496;2023-03-01T01:25:20;93932.59;;;4.69;100.00
35888;BME280;21990;42.540;23.496;2023-03-01T01:27:46;93932.69;;;4.74;100.00
35888;BME280;21990;42.540;23.496;2023-03-01T01:30:14;93925.00;;;4.69;100.00
35888;BME280;21990;42.540;23.496;2023-03-01T01:32:40;93928.63;;;4.75;100.00
35888;BME280;21990;42.540;23.496;2023-03-01T01:35:05;93915.16;;;4.74;100.00
35888;BME280;21990;42.540;23.496;2023-03-01T01:37:31;93923.13;;;4.81;100.00
35888;BME280;21990;42.540;23.496;2023-03-01T01:39:58;93922.44;;;4.86;100.00
35888;BME280;21990;42.540;23.496;2023-03-01T01:42:24;93926.25;;;4.89;100.00
35888;BME280;21990;42.540;23.496;2023-03-01T01:45:42;93926.63;;;4.96;100.00
35888;BME280;21990;42.540;23.496;2023-03-01T01:48:09;93919.56;;;4.81;100.00
35888;BME280;21990;42.540;23.496;2023-03-01T01:50:38;93921.38;;;4.84;100.00
35888;BME280;21990;42.540;23.496;2023-03-01T01:53:08;93924.72;;;4.88;100.00
35888;BME280;21990;42.540;23.496;2023-03-01T01:55:36;93920.03;;;4.79;100.00
35888;BME280;21990;42.540;23.496;2023-03-01T01:58:04;93918.00;;;4.79;100.00
35888;BME280;21990;42.540;23.496;2023-03-01T02:00:31;93928.97;;;4.83;100.00
35888;BME280;21990;42.540;23.496;2023-03-01T02:03:02;93920.69;;;4.89;100.00
35888;BME280;21990;42.540;23.496;2023-03-01T02:08:06;93906.56;;;4.77;100.00
35888;BME280;21990;42.540;23.496;2023-03-01T02:10:34;93913.06;;;4.69;100.00
35888;BME280;21990;42.540;23.496;2023-03-01T02:13:00;93906.69;;;4.68;100.00
35888;BME280;21990;42.540;23.496;2023-03-01T02:15:26;93912.28;;;4.68;100.00
35888;BME280;21990;42.540;23.496;2023-03-01T02:17:53;93904.31;;;4.61;100.00
35888;BME280;21990;42.540;23.496;2023-03-01T02:22:52;93914.50;;;4.64;100.00
35888;BME280;21990;42.540;23.496;2023-03-01T02:25:51;93916.47;;;4.58;100.00
35888;BME280;21990;42.540;23.496;2023-03-01T02:28:30;93918.88;;;4.51;100.00
35888;BME280;21990;42.540;23.496;2023-03-01T02:30:56;93908.97;;;4.50;100.00
35888;BME280;21990;42.540;23.496;2023-03-01T02:33:41;93913.81;;;4.35;100.00
35888;BME280;21990;42.540;23.496;2023-03-01T02:36:10;93911.50;;;4.33;100.00
35888;BME280;21990;42.540;23.496;2023-03-01T02:38:39;93922.47;;;4.37;100.00
35888;BME280;21990;42.540;23.496;2023-03-01T02:41:06;93912.00;;;4.32;100.00
35888;BME280;21990;42.540;23.496;2023-03-01T02:43:33;93908.81;;;4.39;100.00
35888;BME280;21990;42.540;23.496;2023-03-01T02:46:13;93923.25;;;4.37;100.00
35888;BME280;21990;42.540;23.496;2023-03-01T02:48:45;93913.81;;;4.35;100.00
35888;BME280;21990;42.540;23.496;2023-03-01T02:51:26;93916.47;;;4.44;100.00
35888;BME280;21990;42.540;23.496;2023-03-01T02:56:25;93914.47;;;4.44;100.00
35888;BME280;21990;42.540;23.496;2023-03-01T02:58:51;93913.91;;;4.40;100.00
35888;BME280;21990;42.540;23.496;2023-03-01T03:01:19;93910.63;;;4.42;100.00
35888;BME280;21990;42.540;23.496;2023-03-01T03:03:45;93913.88;;;4.55;100.00
35888;BME280;21990;42.540;23.496;2023-03-01T03:06:11;93912.69;;;4.61;100.00
35888;BME280;21990;42.540;23.496;2023-03-01T03:08:37;93908.72;;;4.68;100.00
35888;BME280;21990;42.540;23.496;2023-03-01T03:11:02;93912.75;;;4.67;100.00
35888;BME280;21990;42.540;23.496;2023-03-01T03:13:28;93915.84;;;4.69;100.00
35888;BME280;21990;42.540;23.496;2023-03-01T03:15:55;93919.63;;;4.66;100.00
35888;BME280;21990;42.540;23.496;2023-03-01T03:18:21;93923.56;;;4.59;100.00
35888;BME280;21990;42.540;23.496;2023-03-01T03:20:48;93921.88;;;4.47;100.00
35888;BME280;21990;42.540;23.496;2023-03-01T03:23:21;93927.22;;;4.65;100.00
35888;BME280;21990;42.540;23.496;2023-03-01T03:25:50;93921.91;;;4.67;100.00
35888;BME280;21990;42.540;23.496;2023-03-01T03:28:16;93925.47;;;4.68;100.00
35888;BME280;21990;42.540;23.496;2023-03-01T03:30:42;93921.53;;;4.60;100.00
35888;BME280;21990;42.540;23.496;2023-03-01T03:33:09;93920.78;;;4.59;100.00
35888;BME280;21990;42.540;23.496;2023-03-01T03:35:43;93926.56;;;4.56;100.00
35888;BME280;21990;42.540;23.496;2023-03-01T03:38:11;93917.72;;;4.57;100.00
35888;BME280;21990;42.540;23.496;2023-03-01T03:40:48;93925.50;;;4.53;100.00
35888;BME280;21990;42.540;23.496;2023-03-01T03:43:19;93922.63;;;4.48;100.00
35888;BME280;21990;42.540;23.496;2023-03-01T03:46:04;93923.00;;;4.55;100.00
35888;BME280;21990;42.540;23.496;2023-03-01T03:48:33;93923.69;;;4.50;100.00
35888;BME280;21990;42.540;23.496;2023-03-01T03:50:59;93920.34;;;4.46;100.00
35888;BME280;21990;42.540;23.496;2023-03-01T03:53:26;93917.63;;;4.52;100.00
35888;BME280;21990;42.540;23.496;2023-03-01T03:55:53;93921.31;;;4.43;100.00
35888;BME280;21990;42.540;23.496;2023-03-01T04:01:21;93923.59;;;4.45;100.00
35888;BME280;21990;42.540;23.496;2023-03-01T04:03:47;93929.06;;;4.54;100.00
35888;BME280;21990;42.540;23.496;2023-03-01T04:06:14;93926.56;;;4.56;100.00
35888;BME280;21990;42.540;23.496;2023-03-01T04:08:40;93928.56;;;4.55;100.00
35888;BME280;21990;42.540;23.496;2023-03-01T04:11:06;93921.69;;;4.51;100.00
35888;BME280;21990;42.540;23.496;2023-03-01T04:13:52;93929.75;;;4.49;100.00
35888;BME280;21990;42.540;23.496;2023-03-01T04:16:18;93924.97;;;4.35;100.00
35888;BME280;21990;42.540;23.496;2023-03-01T04:18:44;93928.66;;;4.26;100.00
35888;BME280;21990;42.540;23.496;2023-03-01T04:21:10;93924.31;;;4.25;100.00
35888;BME280;21990;42.540;23.496;2023-03-01T04:23:37;93925.66;;;4.29;100.00
35888;BME280;21990;42.540;23.496;2023-03-01T04:26:03;93932.63;;;4.19;100.00
35888;BME280;21990;42.540;23.496;2023-03-01T04:28:31;93939.59;;;4.29;100.00
35888;BME280;21990;42.540;23.496;2023-03-01T04:31:04;93932.88;;;4.21;100.00
35888;BME280;21990;42.540;23.496;2023-03-01T04:33:59;93938.06;;;4.28;100.00
35888;BME280;21990;42.540;23.496;2023-03-01T04:36:27;93936.91;;;4.20;100.00
35888;BME280;21990;42.540;23.496;2023-03-01T04:38:54;93934.13;;;4.20;100.00
35888;BME280;21990;42.540;23.496;2023-03-01T04:41:22;93931.91;;;4.24;100.00
35888;BME280;21990;42.540;23.496;2023-03-01T04:43:47;93924.81;;;4.23;100.00
35888;BME280;21990;42.540;23.496;2023-03-01T04:46:16;93926.69;;;4.32;100.00
35888;BME280;21990;42.540;23.496;2023-03-01T04:48:43;93928.03;;;4.37;100.00
35888;BME280;21990;42.540;23.496;2023-03-01T04:51:09;93921.69;;;4.36;100.00
35888;BME280;21990;42.540;23.496;2023-03-01T04:53:35;93921.63;;;4.30;100.00
35888;BME280;21990;42.540;23.496;2023-03-01T04:56:04;93927.97;;;4.31;100.00
35888;BME280;21990;42.540;23.496;2023-03-01T04:58:30;93934.03;;;4.29;100.00
35888;BME280;21990;42.540;23.496;2023-03-01T05:00:55;93927.81;;;4.20;100.00
35888;BME280;21990;42.540;23.496;2023-03-01T05:03:21;93932.84;;;4.36;100.00
35888;BME280;21990;42.540;23.496;2023-03-01T05:05:49;93930.56;;;4.35;100.00
35888;BME280;21990;42.540;23.496;2023-03-01T05:08:16;93927.09;;;4.40;100.00
35888;BME280;21990;42.540;23.496;2023-03-01T05:10:51;93931.53;;;4.32;100.00
35888;BME280;21990;42.540;23.496;2023-03-01T05:13:17;93935.78;;;4.27;100.00
35888;BME280;21990;42.540;23.496;2023-03-01T05:15:57;93935.47;;;4.40;100.00
35888;BME280;21990;42.540;23.496;2023-03-01T05:18:27;93931.41;;;4.41;100.00
35888;BME280;21990;42.540;23.496;2023-03-01T05:21:05;93945.28;;;4.35;100.00
35888;BME280;21990;42.540;23.496;2023-03-01T05:23:32;93943.06;;;4.24;100.00
35888;BME280;21990;42.540;23.496;2023-03-01T05:26:02;93932.69;;;4.25;100.00
35888;BME280;21990;42.540;23.496;2023-03-01T05:28:29;93934.50;;;4.28;100.00
35888;BME280;21990;42.540;23.496;2023-03-01T05:30:56;93941.94;;;4.31;100.00
35888;BME280;21990;42.540;23.496;2023-03-01T05:33:22;93937.69;;;4.36;100.00
35888;BME280;21990;42.540;23.496;2023-03-01T05:35:49;93932.38;;;4.38;100.00
35888;BME280;21990;42.540;23.496;2023-03-01T05:38:15;93940.19;;;4.34;100.00
35888;BME280;21990;42.540;23.496;2023-03-01T05:40:46;93945.09;;;4.39;100.00
35888;BME280;21990;42.540;23.496;2023-03-01T05:43:13;93940.28;;;4.39;100.00
35888;BME280;21990;42.540;23.496;2023-03-01T05:45:40;93940.28;;;4.39;100.00
35888;BME280;21990;42.540;23.496;2023-03-01T05:48:09;93947.78;;;4.33;100.00
35888;BME280;21990;42.540;23.496;2023-03-01T05:50:38;93937.38;;;4.34;100.00
35888;BME280;21990;42.540;23.496;2023-03-01T05:53:13;93953.56;;;4.29;100.00
35888;BME280;21990;42.540;23.496;2023-03-01T05:55:39;93951.34;;;4.34;100.00
35888;BME280;21990;42.540;23.496;2023-03-01T05:58:07;93957.59;;;4.28;100.00
35888;BME280;21990;42.540;23.496;2023-03-01T06:00:34;93954.22;;;4.24;100.00
35888;BME280;21990;42.540;23.496;2023-03-01T06:03:00;93957.72;;;4.19;100.00
35888;BME280;21990;42.540;23.496;2023-03-01T06:05:27;93964.53;;;4.18;100.00
35888;BME280;21990;42.540;23.496;2023-03-01T06:07:53;93961.06;;;4.09;100.00
35888;BME280;21990;42.540;23.496;2023-03-01T06:10:20;93964.16;;;4.11;100.00
35888;BME280;21990;42.540;23.496;2023-03-01T06:12:46;93965.00;;;4.02;100.00
35888;BME280;21990;42.540;23.496;2023-03-01T06:15:13;93969.72;;;4.11;100.00
35888;BME280;21990;42.540;23.496;2023-03-01T06:17:40;93969.81;;;4.02;100.00
35888;BME280;21990;42.540;23.496;2023-03-01T06:20:15;93969.25;;;3.98;100.00
35888;BME280;21990;42.540;23.496;2023-03-01T06:22:42;93975.00;;;4.09;100.00
35888;BME280;21990;42.540;23.496;2023-03-01T06:25:08;93978.47;;;4.18;100.00
35888;BME280;21990;42.540;23.496;2023-03-01T06:27:34;93974.25;;;4.23;100.00
35888;BME280;21990;42.540;23.496;2023-03-01T06:30:00;93974.25;;;4.23;100.00
35888;BME280;21990;42.540;23.496;2023-03-01T06:32:25;93974.91;;;4.18;100.00
35888;BME280;21990;42.540;23.496;2023-03-01T06:34:51;93972.13;;;4.18;100.00
35888;BME280;21990;42.540;23.496;2023-03-01T06:37:16;93978.94;;;4.17;100.00
35888;BME280;21990;42.540;23.496;2023-03-01T06:39:42;93975.59;;;4.13;100.00
35888;BME280;21990;42.540;23.496;2023-03-01T06:42:08;93980.59;;;4.09;100.00
35888;BME280;21990;42.540;23.496;2023-03-01T06:44:35;93984.44;;;4.26;100.00
35888;BME280;21990;42.540;23.496;2023-03-01T06:47:01;93985.50;;;4.14;100.00
35888;BME280;21990;42.540;23.496;2023-03-01T06:49:27;93983.38;;;4.23;100.00
35888;BME280;21990;42.540;23.496;2023-03-01T06:51:52;93983.66;;;4.25;100.00
35888;BME280;21990;42.540;23.496;2023-03-01T06:54:18;93984.44;;;4.26;100.00
35888;BME280;21990;42.540;23.496;2023-03-01T06:56:46;93985.59;;;4.34;100.00
35888;BME280;21990;42.540;23.496;2023-03-01T06:59:12;93989.22;;;4.40;100.00
35888;BME280;21990;42.540;23.496;2023-03-01T07:01:38;93986.06;;;4.47;100.00
35888;BME280;21990;42.540;23.496;2023-03-01T07:04:04;93984.00;;;4.48;100.00
35888;BME280;21990;42.540;23.496;2023-03-01T07:06:30;93981.94;;;4.43;100.00
35888;BME280;21990;42.540;23.496;2023-03-01T07:08:55;93987.91;;;4.36;100.00
35888;BME280;21990;42.540;23.496;2023-03-01T07:11:21;93983.94;;;4.42;100.00
35888;BME280;21990;42.540;23.496;2023-03-01T07:13:46;93990.16;;;4.52;100.00
35888;BME280;21990;42.540;23.496;2023-03-01T07:16:12;93980.06;;;4.54;100.00
35888;BME280;21990;42.540;23.496;2023-03-01T07:18:39;93983.50;;;4.64;100.00
35888;BME280;21990;42.540;23.496;2023-03-01T07:21:09;93985.34;;;4.52;100.00
35888;BME280;21990;42.540;23.496;2023-03-01T07:23:37;93977.69;;;4.47;100.00
35888;BME280;21990;42.540;23.496;2023-03-01T07:26:02;93974.41;;;4.49;100.00
35888;BME280;21990;42.540;23.496;2023-03-01T07:28:28;93978.44;;;4.48;100.00
35888;BME280;21990;42.540;23.496;2023-03-01T07:30:54;93974.81;;;4.42;100.00
35888;BME280;21990;42.540;23.496;2023-03-01T07:33:20;93977.84;;;4.44;100.00
35888;BME280;21990;42.540;23.496;2023-03-01T07:35:46;93977.13;;;4.43;100.00
35888;BME280;21990;42.540;23.496;2023-03-01T07:38:11;93971.59;;;4.49;100.00
35888;BME280;21990;42.540;23.496;2023-03-01T07:40:37;93970.84;;;4.48;100.00
35888;BME280;21990;42.540;23.496;2023-03-01T07:43:02;93972.28;;;4.44;100.00
35888;BME280;21990;42.540;23.496;2023-03-01T07:45:28;93977.38;;;4.45;100.00
35888;BME280;21990;42.540;23.496;2023-03-01T07:47:55;93968.81;;;4.49;100.00
35888;BME280;21990;42.540;23.496;2023-03-01T07:50:21;93964.78;;;4.50;100.00
35888;BME280;21990;42.540;23.496;2023-03-01T07:52:48;93959.78;;;4.54;100.00
35888;BME280;21990;42.540;23.496;2023-03-01T07:55:15;93960.19;;;4.47;100.00
35888;BME280;21990;42.540;23.496;2023-03-01T07:57:41;93955.63;;;4.49;100.00
35888;BME280;21990;42.540;23.496;2023-03-01T08:00:10;93963.44;;;4.45;100.00
35888;BME280;21990;42.540;23.496;2023-03-01T08:02:36;93958.47;;;4.35;100.00
35888;BME280;21990;42.540;23.496;2023-03-01T08:05:01;93953.16;;;4.37;100.00
35888;BME280;21990;42.540;23.496;2023-03-01T08:07:27;93950.66;;;4.39;100.00
35888;BME280;21990;42.540;23.496;2023-03-01T08:09:52;93944.59;;;4.40;100.00
35888;BME280;21990;42.540;23.496;2023-03-01T08:12:17;93943.06;;;4.39;100.00
35888;BME280;21990;42.540;23.496;2023-03-01T08:14:43;93946.50;;;4.49;100.00
35888;BME280;21990;42.540;23.496;2023-03-01T08:17:08;93949.78;;;4.47;100.00
35888;BME280;21990;42.540;23.496;2023-03-01T08:19:34;93940.53;;;4.41;100.00
35888;BME280;21990;42.540;23.496;2023-03-01T08:22:03;93946.81;;;4.36;100.00
35888;BME280;21990;42.540;23.496;2023-03-01T08:24:28;93945.34;;;4.41;100.00
35888;BME280;21990;42.540;23.496;2023-03-01T08:26:54;93941.78;;;4.40;100.00
35888;BME280;21990;42.540;23.496;2023-03-01T08:29:20;93941.41;;;4.47;100.00
35888;BME280;21990;42.540;23.496;2023-03-01T08:31:46;93946.59;;;4.54;100.00
35888;BME280;21990;42.540;23.496;2023-03-01T08:34:14;93946.59;;;4.54;100.00
35888;BME280;21990;42.540;23.496;2023-03-01T08:36:42;93953.41;;;4.53;100.00
35888;BME280;21990;42.540;23.496;2023-03-01T08:39:10;93945.03;;;4.53;100.00
35888;BME280;21990;42.540;23.496;2023-03-01T08:41:36;93946.59;;;4.54;100.00
35888;BME280;21990;42.540;23.496;2023-03-01T08:44:02;93939.34;;;4.62;100.00
35888;BME280;21990;42.540;23.496;2023-03-01T08:46:30;93942.06;;;4.57;100.00
35888;BME280;21990;42.540;23.496;2023-03-01T08:48:56;93945.72;;;4.63;100.00
35888;BME280;21990;42.540;23.496;2023-03-01T08:51:23;93946.19;;;4.61;100.00
35888;BME280;21990;42.540;23.496;2023-03-01T08:53:49;93948.88;;;4.56;100.00
35888;BME280;21990;42.540;23.496;2023-03-01T08:56:15;93956.88;;;4.48;100.00
35888;BME280;21990;42.540;23.496;2023-03-01T08:58:46;93955.53;;;4.58;100.00
35888;BME280;21990;42.540;23.496;2023-03-01T09:01:14;93949.38;;;4.54;100.00
35888;BME280;21990;42.540;23.496;2023-03-01T09:03:40;93942.81;;;4.57;100.00
35888;BME280;21990;42.540;23.496;2023-03-01T09:06:07;93947.16;;;4.58;100.00
35888;BME280;21990;42.540;23.496;2023-03-01T09:08:40;93955.94;;;4.51;100.00
35888;BME280;21990;42.540;23.496;2023-03-01T09:11:08;93950.03;;;4.64;100.00
35888;BME280;21990;42.540;23.496;2023-03-01T09:13:34;93950.78;;;4.64;100.00
35888;BME280;21990;42.540;23.496;2023-03-01T09:16:02;93952.03;;;4.63;100.00
35888;BME280;21990;42.540;23.496;2023-03-01T09:18:28;93952.34;;;4.65;100.00
35888;BME280;21990;42.540;23.496;2023-03-01T09:21:04;93954.44;;;4.70;100.00
35888;BME280;21990;42.540;23.496;2023-03-01T09:23:34;93948.00;;;4.64;100.00
35888;BME280;21990;42.540;23.496;2023-03-01T09:26:00;93948.34;;;4.72;100.00
35888;BME280;21990;42.540;23.496;2023-03-01T09:28:25;93947.19;;;4.78;100.00
35888;BME280;21990;42.540;23.496;2023-03-01T09:30:51;93935.31;;;4.84;100.00
35888;BME280;21990;42.540;23.496;2023-03-01T09:33:16;93935.69;;;4.91;100.00
35888;BME280;21990;42.540;23.496;2023-03-01T09:35:42;93935.63;;;4.86;100.00
35888;BME280;21990;42.540;23.496;2023-03-01T09:38:13;93937.50;;;4.74;100.00
35888;BME280;21990;42.540;23.496;2023-03-01T09:40:42;93935.75;;;4.76;100.00
35888;BME280;21990;42.540;23.496;2023-03-01T09:43:18;93938.31;;;4.80;100.00
35888;BME280;21990;42.540;23.496;2023-03-01T09:45:48;93938.31;;;4.80;100.00
35888;BME280;21990;42.540;23.496;2023-03-01T09:48:20;93920.81;;;4.79;100.00
35888;BME280;21990;42.540;23.496;2023-03-01T09:50:49;93931.00;;;4.83;100.00
35888;BME280;21990;42.540;23.496;2023-03-01T09:53:20;93929.19;;;4.79;100.00
35888;BME280;21990;42.540;23.496;2023-03-01T10:07:26;93926.75;;;4.87;100.00
35888;BME280;21990;42.540;23.496;2023-03-01T10:09:53;93928.75;;;4.87;100.00
35888;BME280;21990;42.540;23.496;2023-03-01T10:12:22;93920.19;;;4.90;100.00
35888;BME280;21990;42.540;23.496;2023-03-01T10:20:22;93918.66;;;4.89;100.00
35888;BME280;21990;42.540;23.496;2023-03-01T10:22:49;93907.97;;;4.88;100.00
35888;BME280;21990;42.540;23.496;2023-03-01T10:28:17;93902.53;;;4.99;100.00
35888;BME280;21990;42.540;23.496;2023-03-01T10:30:43;93903.84;;;5.03;100.00
35888;BME280;21990;42.540;23.496;2023-03-01T10:33:31;93890.78;;;4.95;100.00
35888;BME280;21990;42.540;23.496;2023-03-01T10:38:54;93883.97;;;4.96;100.00
35888;BME280;21990;42.540;23.496;2023-03-01T10:41:25;93884.72;;;4.96;100.00
35888;BME280;21990;42.540;23.496;2023-03-01T10:43:54;93888.63;;;5.04;100.00
35888;BME280;21990;42.540;23.496;2023-03-01T10:49:21;93883.97;;;4.96;100.00
35888;BME280;21990;42.540;23.496;2023-03-01T10:51:49;93889.63;;;5.01;100.00
35888;BME280;21990;42.540;23.496;2023-03-01T10:56:51;93869.66;;;5.08;100.00
35888;BME280;21990;42.540;23.496;2023-03-01T11:04:35;93869.34;;;5.06;100.00
35888;BME280;21990;42.540;23.496;2023-03-01T11:07:02;93861.97;;;5.03;100.00
35888;BME280;21990;42.540;23.496;2023-03-01T11:09:32;93859.16;;;5.03;100.00
35888;BME280;21990;42.540;23.496;2023-03-01T11:12:08;93867.13;;;5.10;100.00
35888;BME280;21990;42.540;23.496;2023-03-01T11:14:47;93859.81;;;5.13;100.00
35888;BME280;21990;42.540;23.496;2023-03-01T11:17:30;93862.09;;;5.14;100.00
35888;BME280;21990;42.540;23.496;2023-03-01T11:25:13;93868.41;;;5.09;99.62
35888;BME280;21990;42.540;23.496;2023-03-01T11:27:43;93856.44;;;5.09;100.00
35888;BME280;21990;42.540;23.496;2023-03-01T11:30:15;93864.63;;;5.12;100.00
35888;BME280;21990;42.540;23.496;2023-03-01T11:32:51;93868.31;;;5.04;100.00
35888;BME280;21990;42.540;23.496;2023-03-01T11:35:21;93858.25;;;5.12;100.00
35888;BME280;21990;42.540;23.496;2023-03-01T11:49:58;93848.75;;;5.24;99.94
35888;BME280;21990;42.540;23.496;2023-03-01T11:52:48;93844.41;;;5.23;99.51
35888;BME280;21990;42.540;23.496;2023-03-01T11:55:45;93844.97;;;5.27;99.62
35888;BME280;21990;42.540;23.496;2023-03-01T12:01:36;93844.97;;;5.27;99.04
35888;BME280;21990;42.540;23.496;2023-03-01T12:33:17;93832.84;;;5.61;98.19
35888;BME280;21990;42.540;23.496;2023-03-01T12:38:44;93835.59;;;5.56;98.96
35888;BME280;21990;42.540;23.496;2023-03-01T12:49:16;93829.63;;;5.43;99.85
35888;BME280;21990;42.540;23.496;2023-03-01T12:51:57;93831.97;;;5.50;100.00
35888;BME280;21990;42.540;23.496;2023-03-01T12:54:30;93833.19;;;5.43;100.00
35888;BME280;21990;42.540;23.496;2023-03-01T12:57:39;93826.34;;;5.44;100.00
35888;BME280;21990;42.540;23.496;2023-03-01T13:00:27;93821.50;;;5.45;100.00
35888;BME280;21990;42.540;23.496;2023-03-01T13:03:15;93826.28;;;5.39;100.00
35888;BME280;21990;42.540;23.496;2023-03-01T13:08:49;93828.81;;;5.37;100.00
35888;BME280;21990;42.540;23.496;2023-03-01T13:11:21;93838.94;;;5.34;100.00
35888;BME280;21990;42.540;23.496;2023-03-01T13:13:47;93834.41;;;5.37;100.00
35888;BME280;21990;42.540;23.496;2023-03-01T13:16:38;93835.59;;;5.30;100.00
35888;BME280;21990;42.540;23.496;2023-03-01T13:19:23;93829.00;;;5.33;100.00
35888;BME280;21990;42.540;23.496;2023-03-01T13:21:51;93822.16;;;5.34;100.00
35888;BME280;21990;42.540;23.496;2023-03-01T13:29:46;93829.88;;;5.45;100.00
35888;BME280;21990;42.540;23.496;2023-03-01T13:32:26;93821.41;;;5.34;100.00
35888;BME280;21990;42.540;23.496;2023-03-01T13:35:02;93823.22;;;5.37;100.00
35888;BME280;21990;42.540;23.496;2023-03-01T13:37:35;93821.28;;;5.22;100.00
35888;BME280;21990;42.540;23.496;2023-03-01T13:42:50;93813.53;;;5.32;100.00
35888;BME280;21990;42.540;23.496;2023-03-01T13:47:45;93819.69;;;5.42;100.00
35888;BME280;21990;42.540;23.496;2023-03-01T13:50:23;93824.28;;;5.45;100.00
35888;BME280;21990;42.540;23.496;2023-03-01T13:53:05;93817.22;;;5.49;100.00
35888;BME280;21990;42.540;23.496;2023-03-01T13:55:36;93825.16;;;5.56;100.00
35888;BME280;21990;42.540;23.496;2023-03-01T13:58:13;93823.13;;;5.51;100.00
35888;BME280;21990;42.540;23.496;2023-03-01T14:00:40;93815.75;;;5.54;100.00
35888;BME280;21990;42.540;23.496;2023-03-01T14:03:11;93822.78;;;5.44;100.00
35888;BME280;21990;42.540;23.496;2023-03-01T14:05:39;93817.19;;;5.44;100.00
35888;BME280;21990;42.540;23.496;2023-03-01T14:08:21;93808.75;;;5.38;100.00
35888;BME280;21990;42.540;23.496;2023-03-01T14:11:20;93810.22;;;5.34;100.00
35888;BME280;21990;42.540;23.496;2023-03-01T14:16:32;93806.72;;;5.13;100.00
35888;BME280;21990;42.540;23.496;2023-03-01T14:19:15;93814.13;;;5.16;100.00
35888;BME280;21990;42.540;23.496;2023-03-01T14:21:46;93814.34;;;5.12;100.00
35888;BME280;21990;42.540;23.496;2023-03-01T14:24:21;93806.06;;;5.23;100.00
35888;BME280;21990;42.540;23.496;2023-03-01T14:26:49;93815.00;;;5.28;100.00
35888;BME280;21990;42.540;23.496;2023-03-01T14:29:27;93807.84;;;5.21;100.00
35888;BME280;21990;42.540;23.496;2023-03-01T14:31:52;93813.09;;;5.13;100.00
35888;BME280;21990;42.540;23.496;2023-03-01T14:34:21;93816.91;;;5.16;100.00
35888;BME280;21990;42.540;23.496;2023-03-01T14:36:47;93807.50;;;5.13;100.00
35888;BME280;21990;42.540;23.496;2023-03-01T14:39:38;93807.28;;;5.17;100.00
35888;BME280;21990;42.540;23.496;2023-03-01T14:42:04;93812.31;;;5.13;100.00
35888;BME280;21990;42.540;23.496;2023-03-01T14:44:30;93807.31;;;5.22;100.00
35888;BME280;21990;42.540;23.496;2023-03-01T14:46:59;93817.69;;;5.16;100.00
35888;BME280;21990;42.540;23.496;2023-03-01T14:49:30;93816.44;;;5.17;100.00
35888;BME280;21990;42.540;23.496;2023-03-01T14:54:31;93817.91;;;5.13;100.00
35888;BME280;21990;42.540;23.496;2023-03-01T14:57:01;93818.47;;;5.17;100.00
35888;BME280;21990;42.540;23.496;2023-03-01T14:59:28;93805.53;;;5.19;100.00
35888;BME280;21990;42.540;23.496;2023-03-01T15:01:57;93811.31;;;5.16;100.00
35888;BME280;21990;42.540;23.496;2023-03-01T15:04:24;93814.16;;;5.21;100.00
35888;BME280;21990;42.540;23.496;2023-03-01T15:06:53;93816.69;;;5.19;100.00